sensor_id;sensor_type;location;lat;lon;timestamp;P1;durP1;ratioP1;P2;durP2;ratioP2
16760;SDS011;8498;52.516;13.790;2024-02-26T00:03:58;42.90;;;14.33;;
16760;SDS011;8498;52.516;13.790;2024-02-26T00:09:22;20.27;;;8.07;;
16760;SDS011;8498;52.516;13.790;2024-02-26T00:14:44;14.73;;;6.23;;
16760;SDS011;8498;52.516;13.790;2024-02-26T00:20:08;20.80;;;8.97;;
16760;SDS011;8498;52.516;13.790;2024-02-26T00:25:32;16.97;;;7.57;;
16760;SDS011;8498;52.516;13.790;2024-02-26T00:30:54;19.33;;;9.47;;
16760;SDS011;8498;52.516;13.790;2024-02-26T00:36:18;15.73;;;7.10;;
16760;SDS011;8498;52.516;13.790;2024-02-26T00:41:41;18.47;;;7.47;;
16760;SDS011;8498;52.516;13.790;2024-02-26T00:47:03;26.80;;;9.87;;
16760;SDS011;8498;52.516;13.790;2024-02-26T00:52:25;30.17;;;12.20;;
16760;SDS011;8498;52.516;13.790;2024-02-26T00:57:47;39.07;;;14.17;;
16760;SDS011;8498;52.516;13.790;2024-02-26T01:03:09;28.00;;;10.90;;
16760;SDS011;8498;52.516;13.790;2024-02-26T01:08:32;21.90;;;10.43;;
16760;SDS011;8498;52.516;13.790;2024-02-26T01:13:55;23.63;;;10.00;;
16760;SDS011;8498;52.516;13.790;2024-02-26T01:19:18;22.67;;;7.77;;
16760;SDS011;8498;52.516;13.790;2024-02-26T01:24:41;13.83;;;6.87;;
16760;SDS011;8498;52.516;13.790;2024-02-26T01:30:03;7.97;;;5.13;;
16760;SDS011;8498;52.516;13.790;2024-02-26T01:35:26;5.30;;;3.87;;
16760;SDS011;8498;52.516;13.790;2024-02-26T01:40:48;8.20;;;4.20;;
16760;SDS011;8498;52.516;13.790;2024-02-26T01:46:11;6.17;;;3.87;;
16760;SDS011;8498;52.516;13.790;2024-02-26T01:51:35;5.67;;;4.37;;
16760;SDS011;8498;52.516;13.790;2024-02-26T01:56:58;5.87;;;4.10;;
16760;SDS011;8498;52.516;13.790;2024-02-26T02:02:21;5.43;;;4.10;;
16760;SDS011;8498;52.516;13.790;2024-02-26T02:07:43;4.07;;;3.60;;
16760;SDS011;8498;52.516;13.790;2024-02-26T02:13:06;3.93;;;3.33;;
16760;SDS011;8498;52.516;13.790;2024-02-26T02:18:28;4.00;;;3.53;;
16760;SDS011;8498;52.516;13.790;2024-02-26T02:23:50;4.57;;;4.17;;
16760;SDS011;8498;52.516;13.790;2024-02-26T02:29:12;7.03;;;3.97;;
16760;SDS011;8498;52.516;13.790;2024-02-26T02:34:36;5.27;;;3.97;;
16760;SDS011;8498;52.516;13.790;2024-02-26T02:39:58;5.37;;;3.93;;
16760;SDS011;8498;52.516;13.790;2024-02-26T02:45:21;4.73;;;3.83;;
16760;SDS011;8498;52.516;13.790;2024-02-26T02:50:43;8.87;;;4.17;;
16760;SDS011;8498;52.516;13.790;2024-02-26T02:56:05;7.13;;;4.20;;
16760;SDS011;8498;52.516;13.790;2024-02-26T03:01:27;4.03;;;3.63;;
16760;SDS011;8498;52.516;13.790;2024-02-26T03:06:49;7.47;;;3.73;;
16760;SDS011;8498;52.516;13.790;2024-02-26T03:12:12;4.57;;;3.87;;
16760;SDS011;8498;52.516;13.790;2024-02-26T03:17:34;8.23;;;3.60;;
16760;SDS011;8498;52.516;13.790;2024-02-26T03:22:57;7.17;;;4.10;;
16760;SDS011;8498;52.516;13.790;2024-02-26T03:28:19;4.40;;;4.00;;
16760;SDS011;8498;52.516;13.790;2024-02-26T03:33:41;5.20;;;3.83;;
16760;SDS011;8498;52.516;13.790;2024-02-26T03:39:03;4.60;;;3.83;;
16760;SDS011;8498;52.516;13.790;2024-02-26T03:44:29;4.93;;;3.83;;
16760;SDS011;8498;52.516;13.790;2024-02-26T03:49:51;6.37;;;4.47;;
16760;SDS011;8498;52.516;13.790;2024-02-26T03:55:14;5.43;;;3.67;;
16760;SDS011;8498;52.516;13.790;2024-02-26T04:00:36;4.07;;;3.60;;
16760;SDS011;8498;52.516;13.790;2024-02-26T04:05:58;5.10;;;4.07;;
16760;SDS011;8498;52.516;13.790;2024-02-26T04:11:21;5.03;;;4.03;;
16760;SDS011;8498;52.516;13.790;2024-02-26T04:16:43;7.93;;;4.27;;
16760;SDS011;8498;52.516;13.790;2024-02-26T04:22:06;7.93;;;4.83;;
16760;SDS011;8498;52.516;13.790;2024-02-26T04:27:27;9.83;;;4.73;;
16760;SDS011;8498;52.516;13.790;2024-02-26T04:32:50;7.37;;;4.83;;
16760;SDS011;8498;52.516;13.790;2024-02-26T04:38:12;9.23;;;6.00;;
16760;SDS011;8498;52.516;13.790;2024-02-26T04:43:34;11.67;;;6.33;;
16760;SDS011;8498;52.516;13.790;2024-02-26T04:48:56;8.33;;;5.63;;
16760;SDS011;8498;52.516;13.790;2024-02-26T04:54:19;9.87;;;6.00;;
16760;SDS011;8498;52.516;13.790;2024-02-26T04:59:42;11.93;;;6.50;;
16760;SDS011;8498;52.516;13.790;2024-02-26T05:05:05;11.80;;;6.83;;
16760;SDS011;8498;52.516;13.790;2024-02-26T05:10:28;13.03;;;6.37;;
16760;SDS011;8498;52.516;13.790;2024-02-26T05:15:50;14.23;;;7.07;;
16760;SDS011;8498;52.516;13.790;2024-02-26T05:21:14;15.87;;;5.97;;
16760;SDS011;8498;52.516;13.790;2024-02-26T05:26:39;11.20;;;6.43;;
16760;SDS011;8498;52.516;13.790;2024-02-26T05:32:01;13.60;;;7.73;;
16760;SDS011;8498;52.516;13.790;2024-02-26T05:37:23;13.93;;;7.27;;
16760;SDS011;8498;52.516;13.790;2024-02-26T05:42:46;9.50;;;6.20;;
16760;SDS011;8498;52.516;13.790;2024-02-26T05:48:08;12.90;;;7.30;;
16760;SDS011;8498;52.516;13.790;2024-02-26T05:53:30;16.47;;;7.77;;
16760;SDS011;8498;52.516;13.790;2024-02-26T05:58:52;14.37;;;7.87;;
16760;SDS011;8498;52.516;13.790;2024-02-26T06:04:16;16.83;;;7.53;;
16760;SDS011;8498;52.516;13.790;2024-02-26T06:09:39;16.80;;;8.37;;
16760;SDS011;8498;52.516;13.790;2024-02-26T06:15:01;19.27;;;8.80;;
16760;SDS011;8498;52.516;13.790;2024-02-26T06:20:24;14.43;;;7.90;;
16760;SDS011;8498;52.516;13.790;2024-02-26T06:25:46;14.17;;;7.47;;
16760;SDS011;8498;52.516;13.790;2024-02-26T06:31:10;17.03;;;8.03;;
16760;SDS011;8498;52.516;13.790;2024-02-26T06:36:32;15.63;;;8.33;;
16760;SDS011;8498;52.516;13.790;2024-02-26T06:41:55;17.00;;;7.70;;
16760;SDS011;8498;52.516;13.790;2024-02-26T06:47:23;16.50;;;8.33;;
16760;SDS011;8498;52.516;13.790;2024-02-26T06:52:45;25.53;;;9.87;;
16760;SDS011;8498;52.516;13.790;2024-02-26T06:58:08;19.67;;;9.63;;
16760;SDS011;8498;52.516;13.790;2024-02-26T07:03:31;21.93;;;9.07;;
16760;SDS011;8498;52.516;13.790;2024-02-26T07:08:55;18.87;;;9.57;;
16760;SDS011;8498;52.516;13.790;2024-02-26T07:14:17;21.50;;;9.47;;
16760;SDS011;8498;52.516;13.790;2024-02-26T07:19:39;19.40;;;9.73;;
16760;SDS011;8498;52.516;13.790;2024-02-26T07:25:02;23.60;;;9.23;;
16760;SDS011;8498;52.516;13.790;2024-02-26T07:30:25;22.37;;;9.63;;
16760;SDS011;8498;52.516;13.790;2024-02-26T07:35:47;22.47;;;10.67;;
16760;SDS011;8498;52.516;13.790;2024-02-26T07:41:09;22.47;;;10.53;;
16760;SDS011;8498;52.516;13.790;2024-02-26T07:46:33;22.07;;;10.20;;
16760;SDS011;8498;52.516;13.790;2024-02-26T07:51:55;22.77;;;10.77;;
16760;SDS011;8498;52.516;13.790;2024-02-26T07:57:20;25.03;;;11.70;;
16760;SDS011;8498;52.516;13.790;2024-02-26T08:02:43;24.50;;;12.13;;
16760;SDS011;8498;52.516;13.790;2024-02-26T08:08:06;27.40;;;12.17;;
16760;SDS011;8498;52.516;13.790;2024-02-26T08:13:29;25.67;;;11.87;;
16760;SDS011;8498;52.516;13.790;2024-02-26T08:18:51;25.70;;;12.07;;
16760;SDS011;8498;52.516;13.790;2024-02-26T08:24:13;29.50;;;12.47;;
16760;SDS011;8498;52.516;13.790;2024-02-26T08:29:35;27.77;;;13.17;;
16760;SDS011;8498;52.516;13.790;2024-02-26T08:34:58;31.60;;;13.93;;
16760;SDS011;8498;52.516;13.790;2024-02-26T08:40:21;31.23;;;14.63;;
16760;SDS011;8498;52.516;13.790;2024-02-26T08:45:43;27.50;;;13.27;;
16760;SDS011;8498;52.516;13.790;2024-02-26T08:51:06;31.63;;;13.03;;
16760;SDS011;8498;52.516;13.790;2024-02-26T08:56:29;32.23;;;13.80;;
16760;SDS011;8498;52.516;13.790;2024-02-26T09:01:51;31.37;;;15.50;;
16760;SDS011;8498;52.516;13.790;2024-02-26T09:07:14;36.00;;;15.00;;
16760;SDS011;8498;52.516;13.790;2024-02-26T09:12:36;32.27;;;14.10;;
16760;SDS011;8498;52.516;13.790;2024-02-26T09:17:59;35.93;;;15.83;;
16760;SDS011;8498;52.516;13.790;2024-02-26T09:23:22;31.23;;;13.70;;
16760;SDS011;8498;52.516;13.790;2024-02-26T09:28:44;30.60;;;12.93;;
16760;SDS011;8498;52.516;13.790;2024-02-26T09:34:07;28.33;;;12.90;;
16760;SDS011;8498;52.516;13.790;2024-02-26T09:39:29;28.97;;;12.57;;
16760;SDS011;8498;52.516;13.790;2024-02-26T09:44:53;24.43;;;12.03;;
16760;SDS011;8498;52.516;13.790;2024-02-26T09:50:19;26.13;;;11.33;;
16760;SDS011;8498;52.516;13.790;2024-02-26T09:55:44;26.47;;;12.37;;
16760;SDS011;8498;52.516;13.790;2024-02-26T10:01:08;26.03;;;11.87;;
16760;SDS011;8498;52.516;13.790;2024-02-26T10:06:33;22.13;;;11.43;;
16760;SDS011;8498;52.516;13.790;2024-02-26T10:11:59;24.27;;;10.03;;
16760;SDS011;8498;52.516;13.790;2024-02-26T10:17:21;21.17;;;10.63;;
16760;SDS011;8498;52.516;13.790;2024-02-26T10:22:47;21.80;;;10.40;;
16760;SDS011;8498;52.516;13.790;2024-02-26T10:28:09;19.03;;;10.03;;
16760;SDS011;8498;52.516;13.790;2024-02-26T10:33:35;22.63;;;9.77;;
16760;SDS011;8498;52.516;13.790;2024-02-26T10:39:05;19.10;;;9.87;;
16760;SDS011;8498;52.516;13.790;2024-02-26T10:44:27;19.77;;;9.53;;
16760;SDS011;8498;52.516;13.790;2024-02-26T10:49:50;18.50;;;8.77;;
16760;SDS011;8498;52.516;13.790;2024-02-26T10:55:14;17.83;;;8.40;;
16760;SDS011;8498;52.516;13.790;2024-02-26T11:00:41;15.60;;;8.70;;
16760;SDS011;8498;52.516;13.790;2024-02-26T11:06:06;17.73;;;8.73;;
16760;SDS011;8498;52.516;13.790;2024-02-26T11:11:29;15.97;;;8.70;;
16760;SDS011;8498;52.516;13.790;2024-02-26T11:16:54;17.50;;;9.40;;
16760;SDS011;8498;52.516;13.790;2024-02-26T11:22:18;18.30;;;8.50;;
16760;SDS011;8498;52.516;13.790;2024-02-26T11:27:48;18.23;;;9.33;;
16760;SDS011;8498;52.516;13.790;2024-02-26T11:33:14;17.77;;;9.83;;
16760;SDS011;8498;52.516;13.790;2024-02-26T11:38:37;18.07;;;10.20;;
16760;SDS011;8498;52.516;13.790;2024-02-26T11:44:01;19.83;;;10.17;;
16760;SDS011;8498;52.516;13.790;2024-02-26T11:54:51;17.87;;;9.13;;
16760;SDS011;8498;52.516;13.790;2024-02-26T12:00:15;19.43;;;10.30;;
16760;SDS011;8498;52.516;13.790;2024-02-26T12:05:45;18.43;;;9.93;;
16760;SDS011;8498;52.516;13.790;2024-02-26T12:11:14;23.33;;;9.77;;
16760;SDS011;8498;52.516;13.790;2024-02-26T12:16:37;20.27;;;10.17;;
16760;SDS011;8498;52.516;13.790;2024-02-26T12:22:01;16.73;;;9.80;;
16760;SDS011;8498;52.516;13.790;2024-02-26T12:27:23;17.07;;;9.13;;
16760;SDS011;8498;52.516;13.790;2024-02-26T12:32:46;22.53;;;10.17;;
16760;SDS011;8498;52.516;13.790;2024-02-26T12:38:13;19.40;;;9.50;;
16760;SDS011;8498;52.516;13.790;2024-02-26T12:43:37;16.03;;;9.27;;
16760;SDS011;8498;52.516;13.790;2024-02-26T12:48:59;20.83;;;9.17;;
16760;SDS011;8498;52.516;13.790;2024-02-26T12:54:22;18.60;;;9.87;;
16760;SDS011;8498;52.516;13.790;2024-02-26T12:59:45;20.93;;;8.43;;
16760;SDS011;8498;52.516;13.790;2024-02-26T13:05:07;15.03;;;8.90;;
16760;SDS011;8498;52.516;13.790;2024-02-26T13:10:31;15.30;;;8.90;;
16760;SDS011;8498;52.516;13.790;2024-02-26T13:16:02;17.87;;;10.20;;
16760;SDS011;8498;52.516;13.790;2024-02-26T13:21:26;16.23;;;9.20;;
16760;SDS011;8498;52.516;13.790;2024-02-26T13:26:54;17.23;;;8.63;;
16760;SDS011;8498;52.516;13.790;2024-02-26T13:32:20;15.07;;;8.67;;
16760;SDS011;8498;52.516;13.790;2024-02-26T13:37:42;15.80;;;9.63;;
16760;SDS011;8498;52.516;13.790;2024-02-26T13:43:05;17.43;;;9.73;;
16760;SDS011;8498;52.516;13.790;2024-02-26T13:48:27;16.23;;;9.60;;
16760;SDS011;8498;52.516;13.790;2024-02-26T13:53:49;20.17;;;9.67;;
16760;SDS011;8498;52.516;13.790;2024-02-26T13:59:12;18.60;;;10.20;;
16760;SDS011;8498;52.516;13.790;2024-02-26T14:04:34;21.10;;;9.97;;
16760;SDS011;8498;52.516;13.790;2024-02-26T14:09:57;16.57;;;8.87;;
16760;SDS011;8498;52.516;13.790;2024-02-26T14:15:20;20.30;;;10.37;;
16760;SDS011;8498;52.516;13.790;2024-02-26T14:20:42;17.50;;;9.73;;
16760;SDS011;8498;52.516;13.790;2024-02-26T14:26:06;23.33;;;11.00;;
16760;SDS011;8498;52.516;13.790;2024-02-26T14:31:28;19.10;;;10.13;;
16760;SDS011;8498;52.516;13.790;2024-02-26T14:36:50;20.10;;;9.93;;
16760;SDS011;8498;52.516;13.790;2024-02-26T14:42:13;17.20;;;9.47;;
16760;SDS011;8498;52.516;13.790;2024-02-26T14:47:39;20.20;;;9.73;;
16760;SDS011;8498;52.516;13.790;2024-02-26T14:53:01;15.67;;;9.30;;
16760;SDS011;8498;52.516;13.790;2024-02-26T14:58:24;18.90;;;10.10;;
16760;SDS011;8498;52.516;13.790;2024-02-26T15:03:46;19.73;;;10.17;;
16760;SDS011;8498;52.516;13.790;2024-02-26T15:09:09;19.67;;;9.37;;
16760;SDS011;8498;52.516;13.790;2024-02-26T15:14:32;19.27;;;9.47;;
16760;SDS011;8498;52.516;13.790;2024-02-26T15:19:54;20.30;;;10.57;;
16760;SDS011;8498;52.516;13.790;2024-02-26T15:25:19;21.03;;;10.67;;
16760;SDS011;8498;52.516;13.790;2024-02-26T15:30:41;21.03;;;10.03;;
16760;SDS011;8498;52.516;13.790;2024-02-26T15:36:03;17.93;;;9.90;;
16760;SDS011;8498;52.516;13.790;2024-02-26T15:41:25;19.33;;;10.00;;
16760;SDS011;8498;52.516;13.790;2024-02-26T15:46:48;19.13;;;10.17;;
16760;SDS011;8498;52.516;13.790;2024-02-26T15:52:10;21.57;;;10.90;;
16760;SDS011;8498;52.516;13.790;2024-02-26T15:57:32;25.57;;;12.20;;
16760;SDS011;8498;52.516;13.790;2024-02-26T16:02:54;25.47;;;12.97;;
16760;SDS011;8498;52.516;13.790;2024-02-26T16:08:17;30.67;;;14.27;;
16760;SDS011;8498;52.516;13.790;2024-02-26T16:13:43;33.50;;;13.97;;
16760;SDS011;8498;52.516;13.790;2024-02-26T16:19:07;25.47;;;13.13;;
16760;SDS011;8498;52.516;13.790;2024-02-26T16:24:32;25.13;;;13.40;;
16760;SDS011;8498;52.516;13.790;2024-02-26T16:29:54;29.63;;;13.43;;
16760;SDS011;8498;52.516;13.790;2024-02-26T16:35:16;27.53;;;13.20;;
16760;SDS011;8498;52.516;13.790;2024-02-26T16:40:40;29.20;;;12.40;;
16760;SDS011;8498;52.516;13.790;2024-02-26T16:46:03;28.10;;;12.90;;
16760;SDS011;8498;52.516;13.790;2024-02-26T16:51:25;27.60;;;12.33;;
16760;SDS011;8498;52.516;13.790;2024-02-26T16:56:48;24.67;;;12.30;;
16760;SDS011;8498;52.516;13.790;2024-02-26T17:02:10;20.83;;;11.23;;
16760;SDS011;8498;52.516;13.790;2024-02-26T17:07:33;20.87;;;11.20;;
16760;SDS011;8498;52.516;13.790;2024-02-26T17:12:55;26.23;;;15.38;;
16760;SDS011;8498;52.516;13.790;2024-02-26T17:18:17;22.10;;;11.23;;
16760;SDS011;8498;52.516;13.790;2024-02-26T17:23:40;21.90;;;11.00;;
16760;SDS011;8498;52.516;13.790;2024-02-26T17:29:02;20.20;;;11.07;;
16760;SDS011;8498;52.516;13.790;2024-02-26T17:34:25;16.07;;;9.87;;
16760;SDS011;8498;52.516;13.790;2024-02-26T17:39:48;19.30;;;9.60;;
16760;SDS011;8498;52.516;13.790;2024-02-26T17:45:10;18.30;;;9.83;;
16760;SDS011;8498;52.516;13.790;2024-02-26T17:50:33;23.93;;;10.57;;
16760;SDS011;8498;52.516;13.790;2024-02-26T17:55:54;23.37;;;11.33;;
16760;SDS011;8498;52.516;13.790;2024-02-26T18:01:19;25.40;;;12.17;;
16760;SDS011;8498;52.516;13.790;2024-02-26T18:06:41;22.67;;;11.53;;
16760;SDS011;8498;52.516;13.790;2024-02-26T18:12:05;25.93;;;11.70;;
16760;SDS011;8498;52.516;13.790;2024-02-26T18:17:28;27.40;;;12.03;;
16760;SDS011;8498;52.516;13.790;2024-02-26T18:22:51;25.77;;;11.83;;
16760;SDS011;8498;52.516;13.790;2024-02-26T18:28:12;29.37;;;12.13;;
16760;SDS011;8498;52.516;13.790;2024-02-26T18:33:35;26.63;;;11.43;;
16760;SDS011;8498;52.516;13.790;2024-02-26T18:38:58;23.07;;;11.50;;
16760;SDS011;8498;52.516;13.790;2024-02-26T18:44:21;23.37;;;11.47;;
16760;SDS011;8498;52.516;13.790;2024-02-26T18:49:43;18.77;;;10.67;;
16760;SDS011;8498;52.516;13.790;2024-02-26T18:55:06;20.93;;;11.20;;
16760;SDS011;8498;52.516;13.790;2024-02-26T19:00:28;20.33;;;10.67;;
16760;SDS011;8498;52.516;13.790;2024-02-26T19:05:51;22.27;;;11.47;;
16760;SDS011;8498;52.516;13.790;2024-02-26T19:11:13;18.73;;;10.57;;
16760;SDS011;8498;52.516;13.790;2024-02-26T19:16:40;23.27;;;10.87;;
16760;SDS011;8498;52.516;13.790;2024-02-26T19:22:04;23.53;;;10.60;;
16760;SDS011;8498;52.516;13.790;2024-02-26T19:27:32;20.40;;;9.73;;
16760;SDS011;8498;52.516;13.790;2024-02-26T19:32:55;20.53;;;9.93;;
16760;SDS011;8498;52.516;13.790;2024-02-26T19:38:17;19.90;;;10.17;;
16760;SDS011;8498;52.516;13.790;2024-02-26T19:43:39;20.90;;;10.60;;
16760;SDS011;8498;52.516;13.790;2024-02-26T19:49:02;19.70;;;9.63;;
16760;SDS011;8498;52.516;13.790;2024-02-26T19:54:24;15.40;;;9.23;;
16760;SDS011;8498;52.516;13.790;2024-02-26T19:59:47;19.83;;;9.30;;
16760;SDS011;8498;52.516;13.790;2024-02-26T20:05:10;14.93;;;9.33;;
16760;SDS011;8498;52.516;13.790;2024-02-26T20:10:32;19.03;;;9.87;;
16760;SDS011;8498;52.516;13.790;2024-02-26T20:15:54;21.03;;;10.77;;
16760;SDS011;8498;52.516;13.790;2024-02-26T20:21:17;17.80;;;9.90;;
16760;SDS011;8498;52.516;13.790;2024-02-26T20:26:40;16.97;;;10.13;;
16760;SDS011;8498;52.516;13.790;2024-02-26T20:32:05;20.20;;;9.43;;
16760;SDS011;8498;52.516;13.790;2024-02-26T20:37:28;22.73;;;9.97;;
16760;SDS011;8498;52.516;13.790;2024-02-26T20:42:50;18.03;;;8.90;;
16760;SDS011;8498;52.516;13.790;2024-02-26T20:48:13;19.77;;;10.30;;
16760;SDS011;8498;52.516;13.790;2024-02-26T20:53:35;19.63;;;9.90;;
16760;SDS011;8498;52.516;13.790;2024-02-26T20:58:59;20.67;;;9.70;;
16760;SDS011;8498;52.516;13.790;2024-02-26T21:04:21;18.83;;;9.60;;
16760;SDS011;8498;52.516;13.790;2024-02-26T21:09:46;17.13;;;9.43;;
16760;SDS011;8498;52.516;13.790;2024-02-26T21:15:08;19.73;;;9.37;;
16760;SDS011;8498;52.516;13.790;2024-02-26T21:20:30;16.43;;;9.00;;
16760;SDS011;8498;52.516;13.790;2024-02-26T21:25:54;17.77;;;9.53;;
16760;SDS011;8498;52.516;13.790;2024-02-26T21:31:16;19.03;;;9.10;;
16760;SDS011;8498;52.516;13.790;2024-02-26T21:36:38;17.53;;;8.33;;
16760;SDS011;8498;52.516;13.790;2024-02-26T21:42:01;13.60;;;7.80;;
16760;SDS011;8498;52.516;13.790;2024-02-26T21:47:23;14.90;;;8.30;;
16760;SDS011;8498;52.516;13.790;2024-02-26T21:52:45;18.60;;;8.50;;
16760;SDS011;8498;52.516;13.790;2024-02-26T21:58:07;16.00;;;8.07;;
16760;SDS011;8498;52.516;13.790;2024-02-26T22:03:29;16.30;;;8.83;;
16760;SDS011;8498;52.516;13.790;2024-02-26T22:08:52;15.97;;;8.00;;
16760;SDS011;8498;52.516;13.790;2024-02-26T22:14:14;12.97;;;7.87;;
16760;SDS011;8498;52.516;13.790;2024-02-26T22:19:37;14.33;;;8.20;;
16760;SDS011;8498;52.516;13.790;2024-02-26T22:24:59;14.40;;;7.77;;
16760;SDS011;8498;52.516;13.790;2024-02-26T22:30:21;13.00;;;7.97;;
16760;SDS011;8498;52.516;13.790;2024-02-26T22:35:43;17.80;;;8.37;;
16760;SDS011;8498;52.516;13.790;2024-02-26T22:41:05;19.77;;;8.50;;
16760;SDS011;8498;52.516;13.790;2024-02-26T22:46:27;12.10;;;8.00;;
16760;SDS011;8498;52.516;13.790;2024-02-26T22:51:49;17.30;;;7.83;;
16760;SDS011;8498;52.516;13.790;2024-02-26T22:57:12;17.23;;;8.73;;
16760;SDS011;8498;52.516;13.790;2024-02-26T23:02:34;15.23;;;8.13;;
16760;SDS011;8498;52.516;13.790;2024-02-26T23:07:56;14.30;;;7.87;;
16760;SDS011;8498;52.516;13.790;2024-02-26T23:13:19;12.47;;;8.00;;
16760;SDS011;8498;52.516;13.790;2024-02-26T23:18:41;22.03;;;8.30;;
16760;SDS011;8498;52.516;13.790;2024-02-26T23:24:03;13.77;;;7.63;;
16760;SDS011;8498;52.516;13.790;2024-02-26T23:29:26;11.93;;;7.47;;
16760;SDS011;8498;52.516;13.790;2024-02-26T23:34:49;12.77;;;7.40;;
16760;SDS011;8498;52.516;13.790;2024-02-26T23:40:11;12.50;;;7.53;;
16760;SDS011;8498;52.516;13.790;2024-02-26T23:45:33;12.43;;;7.20;;
16760;SDS011;8498;52.516;13.790;2024-02-26T23:50:56;12.67;;;7.37;;
16760;SDS011;8498;52.516;13.790;2024-02-26T23:56:18;15.07;;;7.70;;
